Time;durP1;ratioP1;P1;durP2;ratioP2;P2;SDS_P1;SDS_P2;PMS_P1;PMS_P2;Temp;Humidity;BMP_temperature;BMP_pressure;BME280_temperature;BME280_humidity;BME280_pressure;Samples;Min_cycle;Max_cycle;Signal;HPM_P1;HPM_P2
2024/01/28 00:02:25;;;;;;;;;7.67;7.00;;;;;16.30;48.39;101107.50;5119256;27;45440;-69
2024/01/28 00:04:51;;;;;;;;;5.33;5.33;;;;;16.38;48.09;101119.03;5119869;27;45502;-69
2024/01/28 00:07:17;;;;;;;;;7.00;5.33;;;;;16.45;47.78;101120.00;5118358;27;45424;-68
2024/01/28 00:09:42;;;;;;;;;7.00;7.00;;;;;16.39;47.80;101104.09;5119388;27;45489;-69
2024/01/28 00:12:10;;;;;;;;;6.67;6.67;;;;;16.52;47.67;101118.38;5119197;27;45185;-70
2024/01/28 00:14:36;;;;;;;;;7.67;6.00;;;;;16.57;47.15;101116.66;5116683;27;45320;-70
2024/01/28 00:17:01;;;;;;;;;6.00;5.67;;;;;16.68;46.57;101112.44;5119229;27;45641;-70
2024/01/28 00:19:27;;;;;;;;;6.00;5.00;;;;;16.52;46.13;101077.06;5119216;27;45680;-70
2024/01/28 00:21:52;;;;;;;;;6.00;5.00;;;;;16.90;45.56;101106.63;5120308;27;45688;-70
2024/01/28 00:24:20;;;;;;;;;6.00;5.33;;;;;16.93;46.00;101112.78;5119952;27;45317;-70
2024/01/28 00:26:46;;;;;;;;;5.67;5.00;;;;;16.98;46.00;101104.06;5118322;27;45529;-70
2024/01/28 00:29:12;;;;;;;;;5.33;5.33;;;;;17.00;45.93;101107.63;5119181;27;45439;-70
2024/01/28 00:31:37;;;;;;;;;6.67;5.00;;;;;17.05;45.34;101102.38;5119836;27;45245;-70
2024/01/28 00:34:03;;;;;;;;;5.00;5.00;;;;;17.15;44.56;101109.56;5119559;27;45459;-70
2024/01/28 00:36:28;;;;;;;;;6.00;6.00;;;;;17.26;44.72;101104.41;5119955;27;45424;-69
2024/01/28 00:38:54;;;;;;;;;5.00;5.00;;;;;17.15;44.95;101080.53;5119820;27;45443;-70
2024/01/28 00:41:26;;;;;;;;;7.33;7.00;;;;;17.37;44.34;101109.81;5119556;27;45225;-70
2024/01/28 00:43:52;;;;;;;;;5.67;5.67;;;;;17.25;44.24;101074.50;5119807;27;45319;-70
2024/01/28 00:46:20;;;;;;;;;9.33;8.00;;;;;17.37;43.98;101086.94;5119736;27;45289;-70
2024/01/28 00:48:46;;;;;;;;;6.00;5.33;;;;;17.52;44.13;101099.41;5119399;27;45252;-70
2024/01/28 00:51:12;;;;;;;;;7.00;6.00;;;;;17.53;44.09;101098.56;5119255;27;45562;-69
2024/01/28 00:53:38;;;;;;;;;6.33;6.00;;;;;17.49;43.94;101084.41;5119537;27;45517;-69
2024/01/28 00:56:04;;;;;;;;;7.00;6.67;;;;;17.59;43.95;101095.09;5119419;27;45296;-69
2024/01/28 00:58:29;;;;;;;;;10.00;6.67;;;;;17.41;44.13;101058.81;5119194;27;45226;-70
2024/01/28 01:00:55;;;;;;;;;2.00;1.00;;;;;17.61;44.16;101086.31;5119549;27;45327;-70
2024/01/28 01:03:21;;;;;;;;;7.00;5.00;;;;;17.63;43.83;101076.63;5119408;27;45456;-70
2024/01/28 01:05:46;;;;;;;;;5.33;5.33;;;;;17.58;44.04;101078.34;5119405;27;45287;-70
2024/01/28 01:08:12;;;;;;;;;6.00;6.00;;;;;17.61;43.91;101074.84;5117656;27;46225;-70
2024/01/28 01:10:38;;;;;;;;;8.00;6.00;;;;;17.50;43.89;101050.97;5119109;27;46035;-70
2024/01/28 01:13:04;;;;;;;;;5.67;5.67;;;;;17.53;43.53;101047.44;5117341;27;45285;-69
2024/01/28 01:15:29;;;;;;;;;6.00;6.00;;;;;17.63;43.90;101066.06;5118815;27;45270;-70
2024/01/28 01:17:56;;;;;;;;;5.00;5.00;;;;;17.66;43.41;101065.19;5118300;27;46258;-70
2024/01/28 01:20:22;;;;;;;;;6.00;5.00;;;;;17.67;43.31;101066.97;5118651;27;45432;-69
2024/01/28 01:22:48;;;;;;;;;6.00;5.00;;;;;17.69;43.23;101066.13;5118329;27;45502;-70
2024/01/28 01:25:14;;;;;;;;;7.67;7.00;;;;;17.73;42.76;101060.88;5118382;27;45431;-69
2024/01/28 01:27:40;;;;;;;;;5.33;5.33;;;;;17.78;42.37;101056.50;5118735;27;46290;-70
2024/01/28 01:30:10;;;;;;;;;5.00;4.67;;;;;17.82;42.55;101056.53;5118670;27;45475;-70
2024/01/28 01:32:40;;;;;;;;;5.00;5.00;;;;;17.84;42.30;101059.22;5118929;27;45288;-70
2024/01/28 01:35:07;;;;;;;;;6.00;5.00;;;;;17.82;42.43;101056.53;5118720;27;45268;-71
2024/01/28 01:37:33;;;;;;;;;5.00;5.00;;;;;17.77;42.43;101050.34;5118587;27;46110;-70
2024/01/28 01:39:59;;;;;;;;;6.00;6.00;;;;;17.76;42.65;101050.31;5118869;27;45392;-70
2024/01/28 01:42:25;;;;;;;;;5.00;5.00;;;;;17.70;42.62;101046.72;5119186;27;45273;-70
2024/01/28 01:44:50;;;;;;;;;7.00;5.00;;;;;17.69;42.47;101052.91;5118897;27;45460;-70
2024/01/28 01:47:17;;;;;;;;;6.00;6.00;;;;;17.68;42.62;101052.88;5118441;27;45330;-70
2024/01/28 01:49:43;;;;;;;;;5.00;5.00;;;;;17.65;42.54;101050.22;5118566;27;45588;-70
2024/01/28 01:52:09;;;;;;;;;4.67;4.00;;;;;17.61;42.61;101045.81;5118543;27;45558;-70
2024/01/28 01:54:36;;;;;;;;;4.00;4.00;;;;;17.59;42.80;101051.06;5117959;27;45493;-70
2024/01/28 01:57:02;;;;;;;;;6.00;5.00;;;;;17.58;42.89;101045.75;5118170;27;46191;-70
2024/01/28 01:59:28;;;;;;;;;5.00;5.00;;;;;17.58;42.26;101045.75;5118653;27;45342;-70
2024/01/28 02:01:56;;;;;;;;;3.67;3.67;;;;;17.57;42.31;101044.88;5118472;27;45295;-70
2024/01/28 02:04:22;;;;;;;;;5.67;5.00;;;;;17.56;42.58;101034.28;5118675;27;45437;-70
2024/01/28 02:06:49;;;;;;;;;5.67;5.33;;;;;17.53;42.52;101037.78;5118251;27;45287;-70
2024/01/28 02:09:15;;;;;;;;;4.00;4.00;;;;;17.51;42.87;101044.81;5118049;27;45397;-70
2024/01/28 02:11:41;;;;;;;;;6.00;4.67;;;;;17.45;43.06;101035.09;5118091;27;45454;-70
2024/01/28 02:14:07;;;;;;;;;5.00;5.00;;;;;17.43;42.60;101038.59;5117187;27;45412;-70
2024/01/28 02:16:33;;;;;;;;;5.00;4.00;;;;;17.41;42.93;101042.97;5117993;27;45398;-70
2024/01/28 02:18:58;;;;;;;;;4.33;4.33;;;;;17.42;42.55;101037.69;5118407;27;45562;-70
2024/01/28 02:21:24;;;;;;;;;7.25;5.50;;;;;17.42;42.46;101028.88;5118287;27;45477;-70
2024/01/28 02:23:50;;;;;;;;;3.00;3.00;;;;;17.32;42.21;101013.81;5118243;27;45225;-71
2024/01/28 02:26:16;;;;;;;;;4.00;3.33;;;;;17.41;42.50;101027.13;5118037;27;45354;-70
2024/01/28 02:28:41;;;;;;;;;4.00;4.00;;;;;17.27;42.33;101006.75;5117947;27;45711;-70
2024/01/28 02:31:07;;;;;;;;;4.00;4.00;;;;;17.40;41.85;101007.72;5116710;27;45245;-70
2024/01/28 02:33:32;;;;;;;;;4.00;4.00;;;;;17.50;41.72;101011.34;5118336;27;45481;-70
2024/01/28 02:35:58;;;;;;;;;4.00;4.00;;;;;17.53;41.84;101016.66;5118142;27;45603;-70
2024/01/28 02:38:24;;;;;;;;;4.00;3.00;;;;;17.56;41.49;101014.03;5117963;27;45389;-70
2024/01/28 02:40:52;;;;;;;;;3.67;3.67;;;;;17.58;41.78;101014.06;5117972;27;45414;-70
2024/01/28 02:43:19;;;;;;;;;5.00;5.00;;;;;17.56;41.82;101024.59;5118226;27;45436;-70
2024/01/28 02:45:44;;;;;;;;;4.67;4.67;;;;;17.34;41.67;100975.97;5117649;27;45306;-70
2024/01/28 02:48:10;;;;;;;;;4.00;4.00;;;;;17.56;41.90;101015.78;5117682;27;45420;-70
2024/01/28 02:50:35;;;;;;;;;6.00;5.00;;;;;17.60;41.46;101004.38;5117884;27;45283;-69
2024/01/28 02:53:01;;;;;;;;;5.00;5.00;;;;;17.62;41.59;101000.88;5118339;27;45543;-70
2024/01/28 02:55:27;;;;;;;;;3.00;3.00;;;;;17.55;41.38;100987.59;5117536;27;45497;-70
2024/01/28 02:57:52;;;;;;;;;6.00;5.00;;;;;17.42;41.55;100958.44;5117824;27;45228;-70
2024/01/28 03:00:18;;;;;;;;;4.67;4.00;;;;;17.47;41.38;100966.44;5117811;27;45285;-70
2024/01/28 03:02:44;;;;;;;;;4.33;4.33;;;;;17.65;41.08;100990.34;5116579;27;45429;-70
2024/01/28 03:05:10;;;;;;;;;5.33;4.33;;;;;17.64;41.34;100988.56;5116221;27;45529;-70
2024/01/28 03:07:36;;;;;;;;;5.00;4.00;;;;;17.62;41.55;100986.78;5119171;27;45405;-70
2024/01/28 03:10:02;;;;;;;;;4.67;4.00;;;;;17.61;41.18;100996.47;5120103;27;45420;-70
2024/01/28 03:12:28;;;;;;;;;3.00;3.00;;;;;17.61;41.30;100991.19;5121284;27;45551;-70
2024/01/28 03:14:53;;;;;;;;;4.00;4.00;;;;;17.60;41.36;100984.13;5120936;27;45417;-70
2024/01/28 03:17:19;;;;;;;;;3.00;3.00;;;;;17.55;41.76;100974.38;5120989;27;45618;-70
2024/01/28 03:19:44;;;;;;;;;4.00;4.00;;;;;17.39;42.07;100958.44;5120916;27;45408;-70
2024/01/28 03:22:10;;;;;;;;;5.00;4.00;;;;;17.50;42.29;100977.00;5121221;27;45473;-70
2024/01/28 03:24:36;;;;;;;;;5.00;4.00;;;;;17.30;42.24;100955.69;5120752;27;46052;-70
2024/01/28 03:27:02;;;;;;;;;4.00;4.00;;;;;17.43;42.30;100986.63;5121151;27;45237;-70
2024/01/28 03:29:27;;;;;;;;;4.67;4.67;;;;;17.43;42.01;100985.75;5119479;27;45489;-70
2024/01/28 03:31:53;;;;;;;;;5.00;5.00;;;;;17.36;42.18;100965.44;5120991;27;45216;-70
2024/01/28 03:34:19;;;;;;;;;3.00;3.00;;;;;17.41;42.31;100971.66;5120710;27;46194;-70
2024/01/28 03:36:45;;;;;;;;;4.33;4.33;;;;;17.41;42.56;100980.47;5120401;27;45333;-70
2024/01/28 03:39:14;;;;;;;;;4.67;4.67;;;;;17.31;42.49;100965.41;5120667;27;45265;-70
2024/01/28 03:41:40;;;;;;;;;5.00;3.67;;;;;17.40;42.93;100976.03;5120875;27;45342;-70
2024/01/28 03:44:05;;;;;;;;;4.00;4.00;;;;;17.28;42.56;100960.97;5119343;27;45488;-70
2024/01/28 03:46:32;;;;;;;;;4.67;4.00;;;;;17.39;42.30;100981.28;5120459;27;45332;-70
2024/01/28 03:48:57;;;;;;;;;5.00;4.33;;;;;17.40;41.74;100983.09;5120640;27;45300;-70
2024/01/28 03:51:23;;;;;;;;;4.00;4.00;;;;;17.42;42.05;100979.56;5120343;27;45486;-70
2024/01/28 03:53:48;;;;;;;;;6.00;5.00;;;;;17.45;42.03;100984.03;5120265;27;45294;-69
2024/01/28 03:56:14;;;;;;;;;6.00;4.33;;;;;17.41;41.96;100958.47;5120136;27;45477;-70
2024/01/28 03:58:40;;;;;;;;;3.67;3.67;;;;;17.33;42.10;100957.47;5120334;27;45312;-70
2024/01/28 04:01:05;;;;;;;;;5.00;5.00;;;;;17.47;42.04;100985.78;5120804;27;45890;-70
2024/01/28 04:03:31;;;;;;;;;4.33;4.00;;;;;17.47;41.89;100982.28;5120083;27;46173;-70
2024/01/28 04:05:56;;;;;;;;;5.00;5.00;;;;;17.47;41.94;100969.94;5120238;27;45440;-70
2024/01/28 04:08:22;;;;;;;;;4.00;3.33;;;;;17.45;42.31;100965.53;5120281;27;45407;-70
2024/01/28 04:10:48;;;;;;;;;3.67;3.00;;;;;17.22;42.08;100931.88;5120799;27;45826;-70
2024/01/28 04:13:13;;;;;;;;;4.00;4.00;;;;;17.13;42.20;100915.06;5120024;27;46239;-70
2024/01/28 04:15:39;;;;;;;;;4.33;4.00;;;;;17.42;42.23;100954.94;5120044;27;45456;-70
2024/01/28 04:18:05;;;;;;;;;4.00;3.33;;;;;17.42;42.03;100952.28;5119879;27;45400;-70
2024/01/28 04:20:31;;;;;;;;;5.00;4.67;;;;;17.45;42.13;100949.69;5120169;27;45454;-70
2024/01/28 04:22:57;;;;;;;;;4.33;4.00;;;;;17.47;41.98;100943.53;5119653;27;45336;-70
2024/01/28 04:25:22;;;;;;;;;1.00;1.00;;;;;17.49;41.97;100940.91;5119890;27;45518;-70
2024/01/28 04:27:48;;;;;;;;;5.00;4.33;;;;;17.49;41.64;100939.16;5119949;27;45293;-71
2024/01/28 04:30:14;;;;;;;;;3.00;3.00;;;;;17.53;41.70;100940.06;5119997;27;45426;-71
2024/01/28 04:32:39;;;;;;;;;4.33;4.33;;;;;17.54;41.51;100933.00;5119649;27;46048;-70
2024/01/28 04:35:05;;;;;;;;;1.33;0.00;;;;;17.58;41.32;100932.16;5119894;27;45400;-70
2024/01/28 04:37:31;;;;;;;;;6.00;5.00;;;;;17.59;41.63;100933.94;5119922;27;45323;-70
2024/01/28 04:39:57;;;;;;;;;4.00;3.00;;;;;17.60;41.43;100928.66;5119744;27;45482;-70
2024/01/28 04:42:23;;;;;;;;;3.00;3.00;;;;;17.59;41.27;100920.75;5119479;27;46264;-70
2024/01/28 04:44:50;;;;;;;;;5.00;3.67;;;;;17.65;41.31;100926.06;5119552;27;45458;-70
2024/01/28 04:47:15;;;;;;;;;4.00;3.00;;;;;17.66;41.20;100923.41;5119727;27;45351;-71
2024/01/28 04:49:42;;;;;;;;;5.00;4.33;;;;;17.68;41.00;100911.09;5119662;27;45448;-71
2024/01/28 04:52:07;;;;;;;;;4.67;4.67;;;;;17.69;40.93;100912.88;5119507;27;45552;-70
2024/01/28 04:54:33;;;;;;;;;5.67;4.67;;;;;17.69;41.33;100914.63;5119278;27;45384;-70
2024/01/28 04:57:01;;;;;;;;;5.00;4.00;;;;;17.70;40.92;100917.25;5119457;27;45300;-70
2024/01/28 04:59:27;;;;;;;;;4.33;4.00;;;;;17.69;41.28;100907.59;5119683;27;45350;-70
2024/01/28 05:01:53;;;;;;;;;3.00;3.00;;;;;17.67;41.09;100900.53;5119248;27;45438;-70
2024/01/28 05:04:19;;;;;;;;;3.33;3.33;;;;;17.66;40.83;100898.75;5119121;27;45266;-70
2024/01/28 05:06:45;;;;;;;;;4.00;4.00;;;;;17.66;40.64;100891.69;5119352;27;45454;-70
2024/01/28 05:09:10;;;;;;;;;2.67;2.33;;;;;17.66;40.44;100893.47;5119719;27;45237;-70
2024/01/28 05:11:36;;;;;;;;;3.00;3.00;;;;;17.70;40.39;100895.25;5119152;27;45939;-70
2024/01/28 05:14:02;;;;;;;;;3.00;3.00;;;;;17.63;40.01;100873.22;5119108;27;45410;-70
2024/01/28 05:16:28;;;;;;;;;4.67;4.00;;;;;17.73;40.54;100894.41;5119085;27;45309;-70
2024/01/28 05:18:53;;;;;;;;;3.00;3.00;;;;;17.69;40.22;100880.28;5119298;27;45551;-70
2024/01/28 05:21:19;;;;;;;;;3.33;3.00;;;;;17.58;39.84;100855.56;5119062;27;45426;-70
2024/01/28 05:23:47;;;;;;;;;3.00;3.00;;;;;17.62;40.20;100866.13;5119007;27;45414;-70
2024/01/28 05:26:14;;;;;;;;;4.00;4.00;;;;;17.72;40.33;100889.97;5119121;27;45301;-71
2024/01/28 05:28:39;;;;;;;;;4.00;4.00;;;;;17.45;40.17;100842.28;5119539;27;45205;-70
2024/01/28 05:31:05;;;;;;;;;3.00;3.00;;;;;17.73;39.92;100890.00;5117755;27;46109;-70
2024/01/28 05:33:34;;;;;;;;;3.00;3.00;;;;;17.72;40.26;100882.94;5118675;27;45371;-70
2024/01/28 05:36:00;;;;;;;;;3.00;3.00;;;;;17.63;40.02;100875.84;5118546;27;45388;-70
2024/01/28 05:38:30;;;;;;;;;3.33;3.00;;;;;17.68;40.39;100881.16;5119031;27;45443;-70
2024/01/28 05:40:56;;;;;;;;;3.67;3.00;;;;;17.56;40.23;100874.03;5118564;27;46222;-70
2024/01/28 05:43:22;;;;;;;;;5.67;5.00;;;;;17.64;40.54;100889.94;5118677;27;45230;-70
2024/01/28 05:45:48;;;;;;;;;3.33;3.00;;;;;17.52;40.47;100871.38;5118721;27;45324;-70
2024/01/28 05:48:13;;;;;;;;;3.33;3.00;;;;;17.63;40.41;100890.81;5119148;27;45932;-71
2024/01/28 05:50:39;;;;;;;;;3.00;3.00;;;;;17.63;40.31;100896.97;5118788;27;45417;-70
2024/01/28 05:53:04;;;;;;;;;4.67;3.00;;;;;17.62;40.50;100895.19;5118511;27;45296;-70
2024/01/28 05:55:30;;;;;;;;;2.00;2.00;;;;;17.62;40.56;100889.91;5118530;27;45477;-70
2024/01/28 05:57:56;;;;;;;;;3.00;3.00;;;;;17.63;40.18;100894.34;5118892;27;45319;-70
2024/01/28 06:00:21;;;;;;;;;3.00;3.00;;;;;17.65;39.86;100887.31;5118269;27;45487;-70
2024/01/28 06:02:47;;;;;;;;;2.00;2.00;;;;;17.67;40.00;100906.69;5118099;27;45359;-70
2024/01/28 06:05:12;;;;;;;;;3.33;3.00;;;;;17.72;39.67;100905.84;5118694;27;45449;-70
2024/01/28 06:07:38;;;;;;;;;2.00;2.00;;;;;17.66;39.95;100891.69;5118490;27;45312;-70
2024/01/28 06:10:04;;;;;;;;;3.33;3.33;;;;;17.73;39.60;100902.34;5118032;27;45954;-70
2024/01/28 06:12:30;;;;;;;;;4.00;3.00;;;;;17.72;39.75;100908.47;5118148;27;45502;-70
2024/01/28 06:15:02;;;;;;;;;4.00;4.00;;;;;17.72;39.60;100906.72;5118132;27;45198;-70
2024/01/28 06:17:29;;;;;;;;;3.33;3.00;;;;;17.72;39.58;100913.75;5118359;27;45506;-70
2024/01/28 06:19:55;;;;;;;;;3.67;3.67;;;;;17.75;39.50;100908.50;5118038;27;45380;-70
2024/01/28 06:22:20;;;;;;;;;5.33;4.00;;;;;17.72;39.79;100913.75;5117924;27;45462;-70
2024/01/28 06:24:46;;;;;;;;;4.00;3.00;;;;;17.69;39.71;100907.59;5116960;27;45470;-69
2024/01/28 06:27:12;;;;;;;;;3.67;3.67;;;;;17.70;39.34;100904.06;5118569;27;45241;-69
2024/01/28 06:29:37;;;;;;;;;5.33;5.33;;;;;17.69;39.19;100888.22;5117525;27;45379;-69
2024/01/28 06:32:03;;;;;;;;;7.00;5.67;;;;;17.82;38.90;100910.31;5117687;27;45459;-70
2024/01/28 06:34:29;;;;;;;;;6.00;5.00;;;;;17.85;38.92;100897.16;5116519;27;45487;-70
2024/01/28 06:36:54;;;;;;;;;4.00;4.00;;;;;17.88;38.41;100905.09;5117758;27;45519;-69
2024/01/28 06:39:20;;;;;;;;;4.67;4.67;;;;;17.96;38.48;100906.00;5117676;27;45448;-70
2024/01/28 06:41:47;;;;;;;;;7.00;7.00;;;;;17.96;38.46;100908.66;5119958;27;45360;-70
2024/01/28 06:44:13;;;;;;;;;4.00;3.00;;;;;17.91;37.66;100894.53;5121721;27;45392;-70
2024/01/28 06:46:39;;;;;;;;;4.00;4.00;;;;;18.12;37.51;100916.66;5121455;27;45665;-70
2024/01/28 06:49:05;;;;;;;;;4.00;4.00;;;;;18.19;37.08;100903.50;5121327;27;45565;-70
2024/01/28 06:51:31;;;;;;;;;4.00;3.00;;;;;18.26;37.29;100915.88;5121274;27;45421;-70
2024/01/28 06:53:57;;;;;;;;;4.00;3.00;;;;;18.31;36.95;100907.94;5120980;27;45273;-70
2024/01/28 06:56:23;;;;;;;;;2.67;2.00;;;;;18.41;36.18;100904.44;5121236;27;45420;-69
2024/01/28 06:58:49;;;;;;;;;3.00;3.00;;;;;18.54;36.34;100893.91;5120961;27;45605;-71
2024/01/28 07:01:14;;;;;;;;;2.33;2.33;;;;;18.48;36.01;100868.31;5121207;27;45472;-70
2024/01/28 07:03:40;;;;;;;;;4.00;4.00;;;;;18.77;35.61;100901.91;5121336;27;45409;-70
2024/01/28 07:06:06;;;;;;;;;4.00;4.00;;;;;18.85;35.59;100906.34;5121652;27;45302;-70
2024/01/28 07:08:31;;;;;;;;;3.00;3.00;;;;;18.90;35.66;100905.47;5120944;27;45903;-70
2024/01/28 07:10:58;;;;;;;;;3.00;3.00;;;;;18.98;35.38;100906.38;5121162;27;45247;-71
2024/01/28 07:13:24;;;;;;;;;4.00;3.00;;;;;18.80;35.25;100856.94;5121203;27;45327;-70
2024/01/28 07:15:49;;;;;;;;;4.00;4.00;;;;;18.93;35.33;100864.03;5121045;27;45437;-71
2024/01/28 07:18:15;;;;;;;;;2.33;2.33;;;;;19.20;35.20;100902.88;5121152;27;45914;-70
2024/01/28 07:20:41;;;;;;;;;4.33;4.00;;;;;19.25;35.04;100909.03;5120974;27;45408;-70
2024/01/28 07:23:07;;;;;;;;;1.00;1.00;;;;;19.36;34.27;100902.84;5121097;27;45502;-70
2024/01/28 07:25:33;;;;;;;;;2.00;2.00;;;;;19.32;35.02;100893.13;5121282;27;45255;-70
2024/01/28 07:27:58;;;;;;;;;3.67;3.00;;;;;19.48;34.67;100900.22;5119310;27;45300;-70
2024/01/28 07:30:24;;;;;;;;;4.67;4.00;;;;;19.48;34.42;100910.81;5120856;27;45562;-70
2024/01/28 07:32:49;;;;;;;;;6.00;5.33;;;;;19.47;35.11;100922.28;5120778;27;45674;-70
2024/01/28 07:35:15;;;;;;;;;3.00;2.67;;;;;19.45;34.26;100902.84;5121260;27;45319;-70
2024/01/28 07:37:42;;;;;;;;;4.00;4.00;;;;;19.58;34.45;100914.34;5120633;27;45475;-70
2024/01/28 07:40:08;;;;;;;;;6.00;5.00;;;;;19.60;34.42;100918.75;5120521;27;45545;-70
2024/01/28 07:42:34;;;;;;;;;5.00;4.00;;;;;19.66;34.54;100912.56;5120275;27;45281;-70
2024/01/28 07:44:59;;;;;;;;;5.00;4.00;;;;;19.72;34.25;100919.66;5120797;27;45306;-70
2024/01/28 07:47:25;;;;;;;;;7.00;6.67;;;;;19.78;34.42;100919.66;5120498;27;45412;-70
2024/01/28 07:49:51;;;;;;;;;5.00;5.00;;;;;19.79;34.62;100921.41;5120407;27;45312;-70
2024/01/28 07:52:17;;;;;;;;;13.00;10.67;;;;;19.82;34.85;100916.97;5119927;27;45290;-70
2024/01/28 07:54:42;;;;;;;;;6.00;6.00;;;;;19.83;34.04;100926.69;5118870;27;45502;-70
2024/01/28 07:57:08;;;;;;;;;6.00;5.67;;;;;19.83;34.71;100908.13;5120015;27;45776;-70
2024/01/28 07:59:34;;;;;;;;;7.00;6.33;;;;;19.95;34.85;100932.84;5120222;27;45220;-70
2024/01/28 08:01:59;;;;;;;;;0.33;0.33;;;;;19.99;34.62;100929.31;5120472;27;45432;-70
2024/01/28 08:04:25;;;;;;;;;4.67;4.67;;;;;20.01;34.84;100940.78;5120405;27;45388;-70
2024/01/28 08:06:50;;;;;;;;;7.33;5.00;;;;;20.03;35.14;100933.72;5120271;27;46097;-70
2024/01/28 08:09:16;;;;;;;;;5.00;5.00;;;;;19.87;35.02;100906.34;5109647;27;45491;-70
2024/01/28 08:11:42;;;;;;;;;5.67;5.33;;;;;20.08;35.08;100944.31;5099116;27;45617;-70
2024/01/28 08:14:08;;;;;;;;;5.00;4.33;;;;;19.89;35.26;100904.56;5099466;27;45497;-70
2024/01/28 08:16:33;;;;;;;;;4.00;4.00;;;;;19.95;35.60;100920.47;5098976;27;45949;-70
2024/01/28 08:18:59;;;;;;;;;4.67;4.67;;;;;20.14;35.03;100939.88;5099002;27;45345;-70
2024/01/28 08:21:24;;;;;;;;;4.67;4.67;;;;;20.17;35.20;100947.81;5099160;27;45465;-70
2024/01/28 08:23:50;;;;;;;;;5.67;5.00;;;;;20.04;35.26;100915.16;5099690;27;45527;-69
2024/01/28 08:26:16;;;;;;;;;4.67;3.33;;;;;20.21;34.75;100927.47;5098840;27;46125;-71
2024/01/28 08:28:41;;;;;;;;;9.00;7.00;;;;;20.38;34.81;100943.34;5099204;27;45289;-70
2024/01/28 08:31:07;;;;;;;;;6.00;6.00;;;;;20.43;35.11;100946.81;5099382;27;45705;-70
2024/01/28 08:33:33;;;;;;;;;5.67;3.67;;;;;20.50;34.42;100947.72;5099423;27;45265;-69
2024/01/28 08:35:58;;;;;;;;;3.33;3.00;;;;;20.56;34.67;100937.94;5098558;27;46114;-70
2024/01/28 08:38:24;;;;;;;;;2.00;2.00;;;;;20.64;34.19;100953.84;5098950;27;45415;-70
2024/01/28 08:40:49;;;;;;;;;7.67;6.33;;;;;20.68;34.58;100931.72;5099374;27;45370;-69
2024/01/28 08:43:15;;;;;;;;;2.33;2.00;;;;;20.74;35.11;100949.38;5099121;27;45487;-70
2024/01/28 08:45:42;;;;;;;;;4.67;3.67;;;;;20.83;34.20;100947.56;5098637;27;46048;-70
2024/01/28 08:48:07;;;;;;;;;5.33;5.33;;;;;20.83;34.39;100933.38;5098648;27;45424;-70
2024/01/28 08:50:33;;;;;;;;;5.00;5.00;;;;;20.92;34.43;100943.09;5098799;27;45383;-70
2024/01/28 08:52:59;;;;;;;;;4.00;4.00;;;;;20.97;34.83;100957.19;5099241;27;45441;-71
2024/01/28 08:55:24;;;;;;;;;6.67;5.00;;;;;21.03;34.72;100957.19;5098393;27;45998;-71
2024/01/28 08:57:50;;;;;;;;;8.67;8.00;;;;;21.03;34.54;100955.41;5099131;27;45523;-70
2024/01/28 09:00:16;;;;;;;;;5.33;4.33;;;;;21.13;33.64;100960.63;5098674;27;45181;-71
2024/01/28 09:02:41;;;;;;;;;3.00;3.00;;;;;21.16;34.02;100958.84;5110039;27;45390;-70
2024/01/28 09:05:07;;;;;;;;;6.00;6.00;;;;;21.24;34.21;100962.31;5118401;27;45495;-70
2024/01/28 09:07:34;;;;;;;;;4.00;2.00;;;;;21.27;33.69;100966.75;5118382;27;45454;-71
2024/01/28 09:10:00;;;;;;;;;8.33;6.00;;;;;21.32;33.45;100958.75;5118394;27;45437;-71
2024/01/28 09:12:25;;;;;;;;;5.33;5.00;;;;;21.35;33.75;100959.59;5117266;27;45434;-70
2024/01/28 09:14:52;;;;;;;;;7.00;5.67;;;;;21.39;33.91;100961.34;5117792;27;46116;-71
2024/01/28 09:17:18;;;;;;;;;4.00;4.00;;;;;21.12;33.69;100901.31;5117382;27;45432;-71
2024/01/28 09:19:44;;;;;;;;;5.67;5.00;;;;;21.42;34.05;100963.09;5114802;27;45503;-70
2024/01/28 09:22:10;;;;;;;;;6.33;6.00;;;;;21.47;34.14;100963.97;5117987;27;45381;-71
2024/01/28 09:24:36;;;;;;;;;5.67;5.00;;;;;21.53;33.80;100963.91;5117347;27;45619;-71
2024/01/28 09:27:02;;;;;;;;;4.67;4.67;;;;;21.60;34.17;100962.94;5117756;27;45612;-71
2024/01/28 09:29:30;;;;;;;;;5.00;4.00;;;;;22.11;33.31;100958.94;5118473;27;45233;-70
2024/01/28 09:31:59;;;;;;;;;4.67;4.67;;;;;22.87;32.89;100913.59;5119043;27;45840;-71
2024/01/28 09:34:25;;;;;;;;;5.00;5.00;;;;;23.70;31.17;100941.59;5117944;27;45596;-71
2024/01/28 09:36:50;;;;;;;;;5.00;5.00;;;;;24.21;31.18;100962.88;5117677;27;45364;-70
2024/01/28 09:39:17;;;;;;;;;6.33;5.67;;;;;24.36;30.99;100970.59;5117864;27;45253;-72
2024/01/28 09:41:55;;;;;;;;;5.67;5.33;;;;;24.28;30.65;100961.84;5117927;27;45163;-71
2024/01/28 09:44:21;;;;;;;;;5.00;4.67;;;;;24.21;30.47;100979.78;5116529;27;46245;-71
2024/01/28 09:46:47;;;;;;;;;4.00;4.00;;;;;24.16;30.89;100991.47;5117624;27;45441;-70
2024/01/28 09:49:14;;;;;;;;;5.67;5.67;;;;;23.97;30.78;100966.91;5117690;27;45533;-70
2024/01/28 09:51:42;;;;;;;;;4.67;4.67;;;;;24.12;29.92;100979.97;5117591;27;45317;-71
2024/01/28 09:54:09;;;;;;;;;4.33;3.67;;;;;24.33;30.53;100992.03;5117146;27;46415;-70
2024/01/28 09:56:38;;;;;;;;;4.00;4.00;;;;;24.42;30.13;100986.47;5117495;27;45616;-71
2024/01/28 09:59:05;;;;;;;;;5.00;3.33;;;;;24.48;30.59;100997.97;5117630;27;45579;-71
2024/01/28 10:01:32;;;;;;;;;4.33;4.00;;;;;24.51;31.21;100988.13;5117643;27;45526;-71
2024/01/28 10:04:01;;;;;;;;;5.67;5.67;;;;;24.53;31.45;100994.31;5117080;27;45480;-71
2024/01/28 10:06:27;;;;;;;;;5.00;5.00;;;;;24.55;31.43;100996.94;5116324;27;45907;-70
2024/01/28 10:08:52;;;;;;;;;7.00;6.00;;;;;24.55;31.61;100994.25;5117681;27;45397;-71
2024/01/28 10:11:18;;;;;;;;;4.00;4.00;;;;;24.54;31.44;100993.41;5115737;27;45394;-71
2024/01/28 10:13:46;;;;;;;;;5.67;4.67;;;;;24.59;31.77;100995.97;5117420;27;45347;-71
2024/01/28 10:16:11;;;;;;;;;5.00;5.00;;;;;24.64;32.09;100987.88;5112784;27;45382;-71
2024/01/28 10:18:37;;;;;;;;;4.00;4.00;;;;;24.55;31.60;100967.56;5121106;27;45331;-71
2024/01/28 10:21:03;;;;;;;;;4.00;4.00;;;;;24.45;30.97;100956.16;5121485;27;45303;-71
2024/01/28 10:23:28;;;;;;;;;4.00;4.00;;;;;24.38;30.91;100947.41;5121651;27;45520;-71
2024/01/28 10:26:00;;;;;;;;;5.00;4.00;;;;;24.50;30.35;100994.38;5122080;27;45497;-71
2024/01/28 10:28:29;;;;;;;;;6.00;5.00;;;;;24.25;30.17;100971.72;5121815;27;45350;-71
2024/01/28 10:30:55;;;;;;;;;3.67;3.67;;;;;24.36;29.83;100999.94;5121254;27;45553;-71
2024/01/28 10:33:21;;;;;;;;;4.33;4.00;;;;;24.30;30.81;101005.41;5120379;27;45424;-71
2024/01/28 10:35:47;;;;;;;;;4.00;4.00;;;;;24.28;30.88;101009.03;5120582;27;45586;-71
2024/01/28 10:38:20;;;;;;;;;6.00;6.00;;;;;24.29;31.05;101014.34;5120811;27;45257;-72
2024/01/28 10:40:49;;;;;;;;;5.00;5.00;;;;;24.29;31.09;101011.69;5121069;27;45306;-73
2024/01/28 10:43:17;;;;;;;;;4.67;4.67;;;;;24.29;31.10;101016.13;5120517;27;46230;-73
2024/01/28 10:45:45;;;;;;;;;5.00;5.00;;;;;24.28;31.39;101011.72;5120364;27;45506;-73
2024/01/28 10:48:16;;;;;;;;;4.00;3.00;;;;;24.26;31.51;101014.41;5120702;27;45644;-77
2024/01/28 10:50:43;;;;;;;;;4.33;4.33;;;;;24.24;31.40;101012.69;5118424;27;45387;-72
2024/01/28 10:53:10;;;;;;;;;5.00;4.67;;;;;24.22;31.54;101002.91;5120048;27;46046;-72
2024/01/28 10:55:36;;;;;;;;;4.00;3.00;;;;;24.20;31.26;101010.06;5120288;27;45355;-72
2024/01/28 10:58:04;;;;;;;;;4.00;4.00;;;;;24.16;31.47;101004.81;5120449;27;45253;-71
2024/01/28 11:00:30;;;;;;;;;5.00;5.00;;;;;24.17;31.23;101012.78;5120622;27;45976;-72
2024/01/28 11:02:59;;;;;;;;;5.00;5.00;;;;;24.17;31.76;101011.91;5120350;27;45539;-72
2024/01/28 11:05:30;;;;;;;;;6.00;6.00;;;;;24.17;31.82;101014.56;5120008;27;45327;-72
2024/01/28 11:07:59;;;;;;;;;7.00;5.33;;;;;24.21;31.32;101000.25;5118196;27;45366;-72
2024/01/28 11:10:29;;;;;;;;;4.33;4.33;;;;;24.25;31.67;100993.94;5120207;27;45605;-72
2024/01/28 11:12:58;;;;;;;;;6.00;6.00;;;;;24.40;31.67;101007.00;5117184;27;46668;-70
2024/01/28 11:15:26;;;;;;;;;9.67;9.67;;;;;24.33;31.80;100981.34;5117241;27;45431;-70
2024/01/28 11:17:52;;;;;;;;;8.67;8.67;;;;;24.63;31.69;101005.69;5120156;27;45307;-72
2024/01/28 11:20:31;;;;;;;;;6.67;6.67;;;;;24.72;30.88;101005.47;5119997;27;45417;-73